Time;durP1;ratioP1;P1;durP2;ratioP2;P2;SDS_P1;SDS_P2;PMS_P1;PMS_P2;Temp;Humidity;BMP_temperature;BMP_pressure;BME280_temperature;BME280_humidity;BME280_pressure;Samples;Min_cycle;Max_cycle;Signal;HPM_P1;HPM_P2
2023/03/08 00:00:20;;;;;;;9.23;6.13;;;;;;;0.21;100.00;99160.81;4946629;28;20213;-84
2023/03/08 00:02:47;;;;;;;7.50;6.30;;;;;;;0.23;100.00;99165.97;4949418;28;20234;-85
2023/03/08 00:05:14;;;;;;;7.77;6.70;;;;;;;0.23;100.00;99168.59;4947872;28;20244;-84
2023/03/08 00:07:40;;;;;;;7.37;6.00;;;;;;;0.24;100.00;99183.41;4947831;28;20201;-85
2023/03/08 00:10:10;;;;;;;11.20;5.90;;;;;;;0.24;100.00;99191.25;4951831;28;20623;-84
2023/03/08 00:12:36;;;;;;;8.77;6.40;;;;;;;0.24;100.00;99197.34;4949132;28;20212;-84
2023/03/08 00:15:03;;;;;;;9.50;6.43;;;;;;;0.25;100.00;99195.56;4944954;28;20229;-84
2023/03/08 00:17:30;;;;;;;8.47;5.70;;;;;;;0.25;100.00;99192.94;4950617;28;20201;-84
2023/03/08 00:19:57;;;;;;;7.87;6.07;;;;;;;0.25;100.00;99188.56;4947348;28;20218;-84
2023/03/08 00:22:23;;;;;;;8.73;6.17;;;;;;;0.26;100.00;99194.66;4950764;28;20233;-84
2023/03/08 00:24:50;;;;;;;8.83;6.00;;;;;;;0.26;100.00;99203.38;4953953;28;20209;-84
2023/03/08 00:27:17;;;;;;;6.67;5.23;;;;;;;0.26;100.00;99208.59;4947840;28;20209;-84
2023/03/08 00:29:44;;;;;;;9.90;5.87;;;;;;;0.28;100.00;99203.28;4947344;28;20225;-84
2023/03/08 00:32:10;;;;;;;7.37;5.87;;;;;;;0.26;100.00;99205.13;4953886;28;20201;-84
2023/03/08 00:34:37;;;;;;;12.87;5.93;;;;;;;0.27;100.00;99218.16;4945308;28;20205;-84
2023/03/08 00:37:03;;;;;;;7.97;4.93;;;;;;;0.28;100.00;99211.16;4953297;28;20217;-84
2023/03/08 00:39:30;;;;;;;9.23;5.43;;;;;;;0.27;100.00;99217.31;4953904;28;20204;-84
2023/03/08 00:41:56;;;;;;;6.77;5.07;;;;;;;0.26;100.00;99208.59;4954517;28;20232;-84
2023/03/08 00:44:24;;;;;;;10.73;5.13;;;;;;;0.27;100.00;99217.31;4949236;28;20204;-84
2023/03/08 00:46:50;;;;;;;6.97;4.70;;;;;;;0.24;100.00;99218.28;4953855;28;20649;-84
2023/03/08 00:49:17;;;;;;;6.93;4.47;;;;;;;0.25;100.00;99206.91;4944686;29;20660;-84
2023/03/08 00:51:43;;;;;;;5.60;5.10;;;;;;;0.23;100.00;99213.97;4953156;28;20208;-84
2023/03/08 00:54:10;;;;;;;7.30;4.97;;;;;;;0.23;100.00;99220.97;4955224;28;20603;-84
2023/03/08 00:56:37;;;;;;;4.73;4.23;;;;;;;0.22;100.00;99216.66;4947088;28;20220;-84
2023/03/08 00:59:04;;;;;;;6.80;4.47;;;;;;;0.21;100.00;99218.41;4938419;28;20214;-84
2023/03/08 01:01:32;;;;;;;5.53;4.23;;;;;;;0.20;99.92;99214.09;4947185;28;20209;-84
2023/03/08 01:03:59;;;;;;;4.73;4.23;;;;;;;0.19;99.69;99224.63;4946801;28;20213;-85
2023/03/08 01:06:25;;;;;;;6.47;4.30;;;;;;;0.18;99.68;99223.78;4954812;29;20252;-84
2023/03/08 01:08:52;;;;;;;4.73;3.67;;;;;;;0.18;99.27;99220.34;4941436;28;20610;-85
2023/03/08 01:11:20;;;;;;;5.03;4.20;;;;;;;0.15;99.00;99218.72;4956167;28;20201;-84
2023/03/08 01:13:48;;;;;;;4.20;3.73;;;;;;;0.15;99.10;99218.72;4953017;28;20297;-85
2023/03/08 01:16:16;;;;;;;4.77;3.80;;;;;;;0.18;98.82;99215.94;4946741;28;20230;-84
2023/03/08 01:18:44;;;;;;;4.93;4.13;;;;;;;0.15;98.57;99207.38;4948202;28;20268;-86
2023/03/08 01:21:11;;;;;;;6.10;3.30;;;;;;;0.14;98.55;99210.91;4948048;28;20225;-85
2023/03/08 01:23:38;;;;;;;4.07;3.33;;;;;;;0.16;98.52;99211.69;4942682;28;20229;-84
2023/03/08 01:26:07;;;;;;;4.87;3.63;;;;;;;0.14;98.34;99211.78;4956969;28;20702;-85
2023/03/08 01:28:34;;;;;;;6.67;3.97;;;;;;;0.16;98.17;99214.31;4960676;28;20217;-84
2023/03/08 01:31:02;;;;;;;7.83;4.13;;;;;;;0.17;97.90;99209.03;4950830;28;20205;-84
2023/03/08 01:33:28;;;;;;;4.97;3.90;;;;;;;0.20;97.92;99215.88;4943920;28;20202;-85
2023/03/08 01:35:56;;;;;;;7.53;4.50;;;;;;;0.19;97.66;99209.78;4949421;28;20232;-85
2023/03/08 01:38:23;;;;;;;6.27;3.33;;;;;;;0.18;97.66;99204.63;4952922;28;20671;-84
2023/03/08 01:40:49;;;;;;;4.10;3.13;;;;;;;0.20;97.69;99206.25;4949685;29;20214;-84
2023/03/08 01:43:22;;;;;;;6.07;3.73;;;;;;;0.22;97.51;99195.69;4945712;28;20719;-84
2023/03/08 01:46:22;;;;;;;7.07;3.47;;;;;;;0.23;97.28;99194.78;4961659;28;20236;-85
2023/03/08 01:48:53;;;;;;;3.73;3.30;;;;;;;0.24;97.14;99192.09;4939817;28;21511;-84
2023/03/08 01:51:28;;;;;;;5.03;4.20;;;;;;;0.26;96.71;99181.56;4950818;28;20201;-85
2023/03/08 01:53:56;;;;;;;5.00;3.90;;;;;;;0.25;96.77;99180.72;4939455;28;20212;-84
2023/03/08 01:56:24;;;;;;;6.40;4.30;;;;;;;0.26;96.69;99182.41;4948202;28;20723;-84
2023/03/08 01:58:52;;;;;;;3.97;3.57;;;;;;;0.28;96.16;99177.13;4941461;29;20351;-84
2023/03/08 02:01:19;;;;;;;6.73;4.00;;;;;;;0.29;96.56;99184.06;4950648;28;20209;-85
2023/03/08 02:03:46;;;;;;;7.10;4.27;;;;;;;0.30;96.23;99180.50;4949265;28;20257;-84
2023/03/08 02:06:14;;;;;;;7.13;3.80;;;;;;;0.31;96.30;99183.06;4953864;28;20228;-84
2023/03/08 02:08:43;;;;;;;5.70;4.30;;;;;;;0.32;96.10;99176.06;4946354;28;20205;-85
2023/03/08 02:11:10;;;;;;;5.33;3.57;;;;;;;0.36;96.18;99184.63;4947093;28;20212;-84
2023/03/08 02:13:37;;;;;;;5.60;3.80;;;;;;;0.33;95.71;99172.53;4953139;29;20208;-85
2023/03/08 02:16:06;;;;;;;6.13;3.80;;;;;;;0.34;95.97;99166.38;4951812;28;21430;-84
2023/03/08 02:18:32;;;;;;;8.97;4.80;;;;;;;0.33;95.58;99159.44;4952200;29;20208;-84
2023/03/08 02:20:59;;;;;;;5.77;4.50;;;;;;;0.34;95.71;99176.84;4941019;28;20217;-84
2023/03/08 02:23:27;;;;;;;6.37;4.57;;;;;;;0.31;95.75;99175.22;4948265;28;20221;-85
2023/03/08 02:25:55;;;;;;;8.20;4.57;;;;;;;0.32;95.66;99173.44;4941486;28;20342;-84
2023/03/08 02:28:23;;;;;;;7.07;5.23;;;;;;;0.36;95.14;99164.50;4944677;28;20676;-84
2023/03/08 02:30:50;;;;;;;7.20;4.37;;;;;;;0.36;95.28;99164.50;4950815;28;20212;-85
2023/03/08 02:33:17;;;;;;;11.47;5.60;;;;;;;0.34;94.83;99161.97;4951245;28;20211;-85
2023/03/08 02:35:44;;;;;;;7.27;5.27;;;;;;;0.33;94.69;99165.53;4945558;28;20236;-86
2023/03/08 02:38:13;;;;;;;8.77;5.47;;;;;;;0.31;94.88;99167.34;4953333;28;20205;-84
2023/03/08 02:40:41;;;;;;;9.37;5.10;;;;;;;0.29;95.08;99165.72;4945700;28;20210;-84
2023/03/08 02:43:08;;;;;;;9.67;5.27;;;;;;;0.29;95.40;99168.34;4943532;28;20230;-84
2023/03/08 02:45:35;;;;;;;8.03;5.07;;;;;;;0.29;95.10;99165.72;4954864;28;20229;-85
2023/03/08 02:48:02;;;;;;;6.63;5.33;;;;;;;0.29;95.05;99163.09;4949931;28;20210;-84
2023/03/08 02:50:30;;;;;;;7.97;5.20;;;;;;;0.28;95.23;99166.63;4956344;28;20287;-86
2023/03/08 02:52:57;;;;;;;9.87;5.93;;;;;;;0.29;95.40;99163.09;4944919;28;20201;-85
2023/03/08 02:55:23;;;;;;;9.47;5.77;;;;;;;0.28;95.23;99153.53;4951509;28;20220;-84
2023/03/08 02:57:51;;;;;;;7.70;5.57;;;;;;;0.29;95.46;99163.09;4953528;28;20209;-84
2023/03/08 03:00:18;;;;;;;9.83;6.63;;;;;;;0.26;95.75;99152.75;4947522;29;20201;-85
2023/03/08 03:02:45;;;;;;;10.20;6.27;;;;;;;0.29;95.46;99155.25;4943176;29;20307;-84
2023/03/08 03:05:11;;;;;;;10.63;6.43;;;;;;;0.28;95.52;99154.41;4953260;28;20239;-86
2023/03/08 03:07:40;;;;;;;10.70;6.30;;;;;;;0.27;95.58;99149.22;4950902;28;20216;-84
2023/03/08 03:10:08;;;;;;;13.20;7.77;;;;;;;0.26;95.53;99151.00;4945328;28;20236;-84
2023/03/08 03:12:35;;;;;;;10.73;6.80;;;;;;;0.27;95.66;99147.47;4948770;28;20205;-84
2023/03/08 03:15:03;;;;;;;10.50;7.03;;;;;;;0.25;95.63;99151.06;4953024;28;20224;-84
2023/03/08 03:17:31;;;;;;;11.20;7.00;;;;;;;0.23;95.65;99152.91;4947415;28;20206;-85
2023/03/08 03:19:57;;;;;;;12.20;7.17;;;;;;;0.22;95.74;99159.91;4956939;28;20589;-85
2023/03/08 03:22:24;;;;;;;12.03;7.60;;;;;;;0.19;95.76;99159.19;4945131;28;20204;-84
2023/03/08 03:24:50;;;;;;;9.13;6.80;;;;;;;0.18;95.54;99160.13;4945409;28;20213;-85
2023/03/08 03:27:18;;;;;;;9.83;7.33;;;;;;;0.16;95.77;99160.19;4957912;28;20208;-84
2023/03/08 03:29:44;;;;;;;10.43;7.07;;;;;;;0.15;95.68;99171.59;4957031;28;20219;-85
2023/03/08 03:32:12;;;;;;;10.73;7.20;;;;;;;0.14;95.73;99155.94;4954916;28;20218;-84
2023/03/08 03:34:39;;;;;;;11.63;7.27;;;;;;;0.12;95.51;99165.63;4952622;28;20581;-85
2023/03/08 03:37:06;;;;;;;11.70;7.60;;;;;;;0.11;95.75;99161.31;4946309;28;20220;-84
2023/03/08 03:39:36;;;;;;;10.47;7.37;;;;;;;0.09;95.70;99164.00;4954528;28;20208;-84
2023/03/08 03:42:02;;;;;;;10.17;7.17;;;;;;;0.08;95.54;99164.06;4949580;28;20208;-85
2023/03/08 03:44:29;;;;;;;10.33;7.07;;;;;;;0.04;95.56;99162.47;4949326;28;20231;-84
2023/03/08 03:46:56;;;;;;;12.03;7.23;;;;;;;0.02;96.12;99164.31;4945127;28;20257;-84
2023/03/08 03:49:24;;;;;;;12.10;6.63;;;;;;;-0.02;95.91;99163.63;4954989;28;20205;-84
2023/03/08 03:51:51;;;;;;;11.53;7.63;;;;;;;-0.01;95.86;99167.94;4947332;28;20208;-84
2023/03/08 03:54:17;;;;;;;10.77;7.17;;;;;;;-0.02;95.95;99159.25;4950282;28;20213;-84
2023/03/08 03:56:44;;;;;;;11.93;7.80;;;;;;;-0.02;95.86;99167.09;4948608;28;20707;-84
2023/03/08 03:59:11;;;;;;;12.53;6.80;;;;;;;-0.04;95.74;99160.22;4951736;28;20204;-85
2023/03/08 04:01:38;;;;;;;12.17;7.63;;;;;;;-0.04;95.90;99163.69;4948944;28;20599;-84
2023/03/08 04:04:04;;;;;;;10.43;6.70;;;;;;;-0.09;96.21;99163.03;4952605;28;20232;-86
2023/03/08 04:06:33;;;;;;;10.30;6.83;;;;;;;-0.08;96.13;99162.13;4951999;28;21169;-85
2023/03/08 04:09:02;;;;;;;11.50;7.10;;;;;;;-0.09;95.83;99163.03;4950116;28;20205;-84
2023/03/08 04:11:32;;;;;;;10.37;6.63;;;;;;;-0.11;96.00;99153.53;4951860;28;20274;-85
2023/03/08 04:13:58;;;;;;;11.47;6.20;;;;;;;-0.11;95.70;99157.00;4948034;28;20656;-85
2023/03/08 04:16:27;;;;;;;10.87;7.00;;;;;;;-0.15;95.65;99160.69;4948055;28;20227;-86
2023/03/08 04:18:54;;;;;;;11.63;7.50;;;;;;;-0.16;95.59;99161.59;4951287;28;20220;-85
2023/03/08 04:21:22;;;;;;;12.33;5.77;;;;;;;-0.17;95.80;99166.88;4953401;28;20251;-85
2023/03/08 04:23:50;;;;;;;11.20;6.60;;;;;;;-0.18;95.52;99165.22;4955604;28;20225;-85
2023/03/08 04:26:16;;;;;;;10.73;6.27;;;;;;;-0.20;95.41;99165.28;4953961;28;20248;-85
2023/03/08 04:28:43;;;;;;;11.20;6.67;;;;;;;-0.22;95.37;99171.50;4938916;28;20210;-84
2023/03/08 04:31:14;;;;;;;8.93;6.20;;;;;;;-0.25;95.36;99164.63;4948413;28;20197;-85
2023/03/08 04:33:40;;;;;;;9.17;6.17;;;;;;;-0.28;95.43;99156.91;4960202;28;20201;-86
2023/03/08 04:36:08;;;;;;;9.13;6.20;;;;;;;-0.28;95.30;99161.28;4959726;28;20565;-85
2023/03/08 04:38:35;;;;;;;9.63;6.13;;;;;;;-0.28;95.33;99159.50;4949228;28;20206;-84
2023/03/08 04:41:04;;;;;;;9.00;6.37;;;;;;;-0.30;95.21;99158.72;4956977;28;20209;-84
2023/03/08 04:43:31;;;;;;;9.77;6.00;;;;;;;-0.32;95.26;99157.94;4947517;28;20230;-84
2023/03/08 04:45:57;;;;;;;7.70;5.20;;;;;;;-0.34;95.04;99154.53;4957918;28;20573;-84
2023/03/08 04:48:24;;;;;;;7.87;5.00;;;;;;;-0.37;94.95;99152.94;4946686;28;20205;-83
2023/03/08 04:50:52;;;;;;;8.47;4.73;;;;;;;-0.37;94.97;99147.69;4955892;28;20212;-83
2023/03/08 04:53:19;;;;;;;7.03;4.37;;;;;;;-0.37;94.58;99155.53;4947350;29;20702;-84
2023/03/08 04:55:45;;;;;;;6.93;4.67;;;;;;;-0.39;94.77;99149.53;4952603;28;20699;-85
2023/03/08 04:58:13;;;;;;;6.83;4.17;;;;;;;-0.38;94.61;99147.75;4950349;28;20709;-84
2023/03/08 05:00:40;;;;;;;7.00;4.50;;;;;;;-0.40;94.36;99146.97;4954090;28;20275;-84
2023/03/08 05:03:06;;;;;;;7.13;4.37;;;;;;;-0.40;94.16;99145.22;4952670;28;20240;-84
2023/03/08 05:05:33;;;;;;;6.00;4.17;;;;;;;-0.41;94.06;99146.13;4949936;28;20280;-86
2023/03/08 05:08:02;;;;;;;5.93;4.37;;;;;;;-0.42;94.10;99151.41;4953335;28;20209;-84
2023/03/08 05:10:29;;;;;;;5.67;4.17;;;;;;;-0.43;94.13;99149.72;4951753;28;20221;-84
2023/03/08 05:12:55;;;;;;;6.27;4.10;;;;;;;-0.44;93.52;99150.63;4947932;28;20232;-85
2023/03/08 05:15:23;;;;;;;9.00;4.30;;;;;;;-0.45;93.72;99148.91;4951460;28;20240;-85
2023/03/08 05:17:50;;;;;;;7.17;4.40;;;;;;;-0.46;93.45;99145.47;4946708;28;20217;-86
2023/03/08 05:20:17;;;;;;;6.80;4.60;;;;;;;-0.48;93.56;99149.91;4957201;28;20213;-84
2023/03/08 05:22:44;;;;;;;8.03;4.93;;;;;;;-0.50;92.93;99137.81;4953886;28;20976;-84
2023/03/08 05:25:10;;;;;;;7.00;4.77;;;;;;;-0.51;93.05;99142.19;4951761;28;20225;-85
2023/03/08 05:27:37;;;;;;;5.07;4.20;;;;;;;-0.53;92.97;99148.38;4946602;28;20597;-85
2023/03/08 05:30:04;;;;;;;6.60;4.63;;;;;;;-0.52;92.96;99137.00;4950619;28;20210;-84
2023/03/08 05:32:32;;;;;;;6.93;4.27;;;;;;;-0.56;92.51;99132.84;4956916;28;20220;-84
2023/03/08 05:34:58;;;;;;;5.73;4.13;;;;;;;-0.56;92.61;99119.78;4955807;28;20590;-86
2023/03/08 05:37:25;;;;;;;5.50;3.80;;;;;;;-0.59;92.78;99125.97;4955036;28;20212;-86
2023/03/08 05:39:51;;;;;;;5.67;4.20;;;;;;;-0.58;92.67;99119.00;4951122;28;20209;-85
2023/03/08 05:42:19;;;;;;;6.97;4.20;;;;;;;-0.59;92.64;99117.28;4948748;29;20648;-84
2023/03/08 05:44:45;;;;;;;7.77;4.43;;;;;;;-0.59;92.56;99120.75;4949405;28;20228;-85
2023/03/08 05:47:12;;;;;;;7.50;4.27;;;;;;;-0.61;93.02;99122.56;4954288;28;20212;-85
2023/03/08 05:49:40;;;;;;;9.87;5.40;;;;;;;-0.61;92.59;99121.72;4948765;28;20200;-84
2023/03/08 05:52:06;;;;;;;5.40;3.83;;;;;;;-0.62;92.87;99117.41;4947554;28;20201;-85
2023/03/08 05:54:33;;;;;;;10.03;5.50;;;;;;;-0.63;92.54;99123.56;4949298;28;20202;-85
2023/03/08 05:56:59;;;;;;;9.13;5.17;;;;;;;-0.63;92.73;99128.78;4952150;28;20229;-85
2023/03/08 05:59:26;;;;;;;7.40;5.50;;;;;;;-0.65;92.68;99123.63;4954217;28;20224;-86
2023/03/08 06:01:53;;;;;;;7.40;5.40;;;;;;;-0.65;92.66;99126.22;4950063;28;20361;-85
2023/03/08 06:04:19;;;;;;;9.60;5.73;;;;;;;-0.63;93.12;99118.31;4948271;28;20239;-86
2023/03/08 06:06:48;;;;;;;9.50;6.50;;;;;;;-0.63;92.96;99120.94;4951187;28;20233;-84
2023/03/08 06:09:14;;;;;;;7.90;5.40;;;;;;;-0.62;92.80;99120.88;4956866;28;20212;-86
2023/03/08 06:11:41;;;;;;;10.50;6.60;;;;;;;-0.60;92.89;99123.44;4949852;28;20201;-86
2023/03/08 06:14:07;;;;;;;9.57;6.20;;;;;;;-0.59;92.78;99122.50;4951587;28;20212;-86
2023/03/08 06:16:34;;;;;;;11.17;7.07;;;;;;;-0.58;93.00;99132.06;4958309;28;20228;-86
2023/03/08 06:19:01;;;;;;;8.60;6.50;;;;;;;-0.58;92.83;99130.28;4952954;28;20395;-85
2023/03/08 06:21:28;;;;;;;9.63;6.00;;;;;;;-0.58;93.08;99132.91;4955029;28;20217;-82
2023/03/08 06:23:55;;;;;;;9.57;6.40;;;;;;;-0.54;93.25;99128.41;4953318;28;20725;-82
2023/03/08 06:26:22;;;;;;;10.60;7.30;;;;;;;-0.52;93.16;99134.41;4951754;28;20611;-82
2023/03/08 06:28:48;;;;;;;10.43;6.53;;;;;;;-0.50;93.46;99129.97;4951867;28;20218;-83
2023/03/08 06:31:17;;;;;;;17.30;8.87;;;;;;;-0.48;93.33;99125.50;4954816;28;20205;-82
2023/03/08 06:33:44;;;;;;;12.70;7.60;;;;;;;-0.46;93.34;99121.06;4951733;28;20569;-82
2023/03/08 06:36:13;;;;;;;11.23;7.53;;;;;;;-0.47;93.52;99111.53;4954030;28;20228;-83
2023/03/08 06:38:41;;;;;;;11.97;8.03;;;;;;;-0.47;93.49;99114.13;4949344;28;20211;-83
2023/03/08 06:41:10;;;;;;;11.50;8.07;;;;;;;-0.45;93.89;99109.69;4948944;28;20815;-83
2023/03/08 06:43:37;;;;;;;14.03;7.77;;;;;;;-0.42;93.40;99125.25;4951852;28;20243;-83
2023/03/08 06:46:04;;;;;;;12.60;8.43;;;;;;;-0.42;93.67;99113.03;4942111;28;20233;-83
2023/03/08 06:48:31;;;;;;;11.30;8.37;;;;;;;-0.39;93.68;99109.44;4951547;28;20201;-82
2023/03/08 06:50:57;;;;;;;12.40;8.07;;;;;;;-0.37;93.60;99113.69;4952571;28;20686;-83
2023/03/08 06:53:24;;;;;;;14.93;8.87;;;;;;;-0.33;93.56;99116.16;4953579;28;20706;-83
2023/03/08 06:55:50;;;;;;;12.20;8.13;;;;;;;-0.30;93.74;99116.03;4951071;28;20228;-82
2023/03/08 06:58:18;;;;;;;16.20;10.27;;;;;;;-0.27;93.50;99108.03;4948801;28;20201;-83
2023/03/08 07:00:44;;;;;;;15.47;9.67;;;;;;;-0.24;93.59;99098.31;4943799;28;20205;-82
2023/03/08 07:03:12;;;;;;;13.73;8.60;;;;;;;-0.22;93.45;99109.56;4952560;28;20213;-83
2023/03/08 07:05:39;;;;;;;14.37;9.30;;;;;;;-0.20;93.29;99097.25;4943271;28;20237;-83
2023/03/08 07:08:06;;;;;;;14.17;9.60;;;;;;;-0.19;93.21;99093.72;4950374;28;20224;-84
2023/03/08 07:10:32;;;;;;;12.43;7.83;;;;;;;-0.16;93.18;99100.56;4951211;28;20213;-84
2023/03/08 07:12:59;;;;;;;14.10;9.30;;;;;;;-0.13;93.39;99098.66;4947397;28;20205;-84
2023/03/08 07:15:27;;;;;;;15.63;10.70;;;;;;;-0.10;93.01;99098.53;4949851;28;20218;-84
2023/03/08 07:17:55;;;;;;;15.47;10.10;;;;;;;-0.06;93.08;99094.00;4949304;28;20674;-84
2023/03/08 07:20:23;;;;;;;15.57;9.37;;;;;;;-0.05;92.86;99086.09;4946727;28;20221;-84
2023/03/08 07:22:50;;;;;;;13.37;9.53;;;;;;;-0.02;92.75;99080.72;4952043;28;20264;-84
2023/03/08 07:25:18;;;;;;;18.50;10.63;;;;;;;0.00;92.68;99084.09;4950760;28;20237;-82
2023/03/08 07:27:45;;;;;;;14.00;8.60;;;;;;;0.04;92.81;99079.59;4949706;28;20225;-83
2023/03/08 07:30:14;;;;;;;13.80;9.00;;;;;;;0.07;92.24;99081.22;4948124;28;20209;-82
2023/03/08 07:32:42;;;;;;;13.10;9.07;;;;;;;0.08;92.40;99072.44;4950681;28;20227;-84
2023/03/08 07:35:10;;;;;;;15.10;9.17;;;;;;;0.09;92.17;99074.16;4961145;28;20261;-83
2023/03/08 07:37:37;;;;;;;15.13;8.70;;;;;;;0.10;93.00;99081.09;4947976;28;20296;-83
2023/03/08 07:40:04;;;;;;;14.37;9.43;;;;;;;0.13;92.30;99071.31;4946549;28;20205;-84
2023/03/08 07:42:31;;;;;;;14.70;9.43;;;;;;;0.17;92.23;99074.66;4955406;28;20843;-84
2023/03/08 07:44:58;;;;;;;15.07;9.00;;;;;;;0.20;92.11;99069.25;4952329;28;20318;-84
2023/03/08 07:47:24;;;;;;;12.90;8.87;;;;;;;0.23;92.03;99062.13;4956763;28;20201;-84
2023/03/08 07:49:52;;;;;;;14.00;9.87;;;;;;;0.25;92.05;99064.66;4951020;28;20218;-84
2023/03/08 07:52:18;;;;;;;14.87;8.60;;;;;;;0.27;91.87;99061.06;4949642;28;20672;-84
2023/03/08 07:54:45;;;;;;;13.30;8.77;;;;;;;0.30;91.55;99060.91;4953969;28;20205;-85
2023/03/08 07:57:13;;;;;;;12.47;8.47;;;;;;;0.32;91.51;99066.94;4956577;28;20221;-83
2023/03/08 07:59:39;;;;;;;15.07;8.83;;;;;;;0.34;91.39;99066.88;4956257;28;20209;-84
2023/03/08 08:02:06;;;;;;;15.23;8.63;;;;;;;0.36;91.80;99067.63;4949415;28;20202;-84
2023/03/08 08:04:34;;;;;;;13.50;9.20;;;;;;;0.38;91.60;99065.78;4956187;28;20232;-85
2023/03/08 08:07:02;;;;;;;14.97;10.07;;;;;;;0.40;91.24;99063.94;4952772;28;20228;-83
2023/03/08 08:09:29;;;;;;;16.40;9.33;;;;;;;0.43;91.44;99060.31;4955392;28;20208;-85
2023/03/08 08:11:55;;;;;;;15.50;10.40;;;;;;;0.45;91.48;99058.50;4952951;28;20240;-84
2023/03/08 08:14:22;;;;;;;15.33;9.67;;;;;;;0.45;91.32;99058.50;4944441;28;20229;-85
2023/03/08 08:16:48;;;;;;;17.00;10.97;;;;;;;0.46;91.04;99061.03;4948184;28;20233;-84
2023/03/08 08:19:16;;;;;;;11.93;8.70;;;;;;;0.48;90.97;99053.09;4950200;28;20224;-83
2023/03/08 08:21:42;;;;;;;15.27;9.03;;;;;;;0.49;90.87;99055.66;4953628;28;20208;-84
2023/03/08 08:24:10;;;;;;;15.67;9.93;;;;;;;0.50;90.88;99052.13;4950163;28;20233;-83
2023/03/08 08:26:37;;;;;;;14.97;10.20;;;;;;;0.49;90.99;99052.19;4950779;28;20237;-86
2023/03/08 08:29:03;;;;;;;17.83;10.53;;;;;;;0.51;90.71;99047.72;4955521;28;20216;-85
2023/03/08 08:31:30;;;;;;;17.53;11.50;;;;;;;0.53;90.94;99041.50;4957727;28;20217;-83
2023/03/08 08:33:57;;;;;;;21.77;11.63;;;;;;;0.55;90.96;99044.88;4957002;28;20208;-85
2023/03/08 08:36:23;;;;;;;17.37;11.30;;;;;;;0.57;90.64;99040.41;4950710;28;20601;-83
2023/03/08 08:38:50;;;;;;;16.50;11.07;;;;;;;0.61;90.74;99038.50;4952896;28;20204;-83
2023/03/08 08:41:20;;;;;;;16.20;10.40;;;;;;;0.63;90.74;99041.88;4948385;28;20213;-84
2023/03/08 08:43:47;;;;;;;17.13;10.10;;;;;;;0.64;90.47;99033.97;4955273;28;20209;-84
2023/03/08 08:46:15;;;;;;;16.30;11.27;;;;;;;0.68;91.12;99035.50;4943469;28;20240;-84
2023/03/08 08:48:42;;;;;;;18.47;11.00;;;;;;;0.74;90.78;99031.72;4954819;28;20202;-84
2023/03/08 08:51:11;;;;;;;17.37;10.50;;;;;;;0.79;90.95;99034.13;4953306;28;20217;-83
2023/03/08 08:53:38;;;;;;;16.00;10.27;;;;;;;0.84;91.02;99032.13;4944497;28;20209;-84
2023/03/08 08:56:12;;;;;;;19.37;11.03;;;;;;;0.88;90.91;99033.69;4954435;28;20232;-83
2023/03/08 08:58:40;;;;;;;22.03;13.83;;;;;;;0.91;90.73;99031.72;4946338;28;20702;-84
2023/03/08 09:01:14;;;;;;;20.77;12.10;;;;;;;0.96;90.92;99018.41;4952575;28;20209;-85
2023/03/08 09:03:40;;;;;;;18.30;11.43;;;;;;;0.99;91.09;99020.88;4949927;28;20239;-84
2023/03/08 09:06:07;;;;;;;20.33;12.40;;;;;;;1.02;90.94;99023.34;4949707;28;20608;-84
2023/03/08 09:08:34;;;;;;;17.73;11.70;;;;;;;1.06;91.46;99026.69;4951749;28;20269;-85
2023/03/08 09:11:03;;;;;;;15.77;11.43;;;;;;;1.09;90.91;99016.84;4953555;28;20200;-84
2023/03/08 09:13:29;;;;;;;20.80;12.27;;;;;;;1.12;91.19;99010.63;4947499;28;20596;-85
2023/03/08 09:15:57;;;;;;;21.13;13.10;;;;;;;1.14;91.15;99012.22;4949798;28;20236;-85
2023/03/08 09:18:24;;;;;;;19.77;11.50;;;;;;;1.19;90.82;99001.50;4954363;28;20208;-87
2023/03/08 09:20:50;;;;;;;21.30;12.30;;;;;;;1.19;90.87;99002.38;4949489;28;20216;-86
2023/03/08 09:23:17;;;;;;;18.80;12.20;;;;;;;1.21;90.69;98997.91;4953112;28;20205;-86
2023/03/08 09:25:44;;;;;;;18.80;11.60;;;;;;;1.21;90.13;98992.66;4946584;28;20245;-86
2023/03/08 09:28:10;;;;;;;18.23;11.70;;;;;;;1.21;90.19;98982.16;4953847;28;20204;-85
2023/03/08 09:30:37;;;;;;;20.30;12.37;;;;;;;1.22;89.79;98983.00;4945030;28;20210;-84
2023/03/08 09:33:05;;;;;;;20.20;11.07;;;;;;;1.22;90.25;98977.75;4942996;28;20236;-85
2023/03/08 09:35:31;;;;;;;18.90;11.77;;;;;;;1.26;90.13;98985.38;4950439;28;20221;-85
2023/03/08 09:38:00;;;;;;;22.47;11.63;;;;;;;1.30;89.66;98983.44;4958076;28;20692;-86
2023/03/08 09:40:29;;;;;;;19.00;12.33;;;;;;;1.33;90.12;98976.25;4950439;28;20265;-85
2023/03/08 09:43:05;;;;;;;18.73;11.13;;;;;;;1.38;89.62;98963.78;4955713;28;20216;-84
2023/03/08 09:45:32;;;;;;;18.67;11.43;;;;;;;1.42;89.37;98968.84;4950143;28;20224;-84
2023/03/08 09:48:03;;;;;;;20.70;12.67;;;;;;;1.45;89.16;98960.78;4952685;28;20209;-84
2023/03/08 09:50:44;;;;;;;18.57;11.37;;;;;;;1.49;89.31;98954.47;4951236;28;20205;-84
2023/03/08 09:53:23;;;;;;;19.63;11.60;;;;;;;1.53;89.35;98956.84;4946390;28;20213;-83
2023/03/08 09:55:53;;;;;;;15.70;10.83;;;;;;;1.57;89.03;98947.06;4945301;28;20241;-83
2023/03/08 09:58:31;;;;;;;17.47;11.60;;;;;;;1.63;88.93;98941.44;4949724;28;20240;-83
2023/03/08 10:01:04;;;;;;;17.67;10.63;;;;;;;1.66;88.41;98936.03;4951200;28;20260;-83
2023/03/08 10:04:00;;;;;;;16.60;10.47;;;;;;;1.70;88.03;98932.31;4955382;28;20207;-83
2023/03/08 10:06:34;;;;;;;15.73;10.33;;;;;;;1.74;87.55;98928.59;4942506;29;20229;-84
2023/03/08 10:09:07;;;;;;;17.33;11.60;;;;;;;1.78;87.86;98929.28;4956121;28;20213;-83
2023/03/08 10:11:40;;;;;;;16.40;10.97;;;;;;;1.83;87.57;98932.50;4951843;28;20205;-84
2023/03/08 10:14:17;;;;;;;16.50;10.60;;;;;;;1.86;87.96;98919.19;4952078;28;20208;-83
2023/03/08 10:16:47;;;;;;;16.77;10.73;;;;;;;1.89;87.07;98919.88;4950233;28;20295;-84
2023/03/08 10:19:17;;;;;;;20.57;13.27;;;;;;;1.92;87.07;98909.22;4950470;28;20212;-86
2023/03/08 10:21:46;;;;;;;17.73;11.23;;;;;;;1.98;87.37;98914.09;4957600;28;20342;-84
2023/03/08 10:24:16;;;;;;;22.13;13.83;;;;;;;2.03;87.57;98901.56;4948393;28;20208;-83
2023/03/08 10:26:43;;;;;;;20.90;13.60;;;;;;;2.11;87.37;98905.56;4954046;28;20245;-84
2023/03/08 10:29:11;;;;;;;17.13;11.03;;;;;;;2.16;87.27;98899.09;4947387;28;20220;-83
2023/03/08 10:31:38;;;;;;;15.73;10.27;;;;;;;2.20;86.87;98905.03;4949527;28;20197;-81
2023/03/08 10:34:12;;;;;;;18.07;11.03;;;;;;;2.22;86.44;98893.50;4957020;28;20208;-83
2023/03/08 10:36:51;;;;;;;17.70;11.50;;;;;;;2.25;86.13;98893.31;4954797;28;20600;-83
2023/03/08 10:39:19;;;;;;;15.97;10.87;;;;;;;2.27;86.35;98875.72;4951667;29;20208;-83
2023/03/08 10:41:49;;;;;;;15.60;10.93;;;;;;;2.30;86.50;98880.78;4950798;28;20299;-83
2023/03/08 10:44:30;;;;;;;13.43;9.60;;;;;;;2.34;86.23;98878.81;4949893;28;20489;-83
2023/03/08 10:46:56;;;;;;;14.03;9.77;;;;;;;2.35;85.44;98880.50;4948477;28;20227;-83
2023/03/08 10:49:24;;;;;;;17.37;11.57;;;;;;;2.36;85.58;98869.91;4949473;28;20204;-83
2023/03/08 10:51:57;;;;;;;23.50;12.00;;;;;;;2.41;85.99;98865.22;4949696;28;20209;-83
2023/03/08 10:54:25;;;;;;;18.70;12.03;;;;;;;2.46;85.41;98864.97;4947282;28;20261;-83
2023/03/08 10:56:54;;;;;;;17.83;10.30;;;;;;;2.48;85.22;98860.47;4948707;29;20235;-82
2023/03/08 10:59:27;;;;;;;13.90;9.00;;;;;;;2.52;84.62;98855.88;4951763;28;20204;-83
2023/03/08 11:01:55;;;;;;;14.17;8.60;;;;;;;2.55;84.60;98853.91;4951567;28;20200;-83
2023/03/08 11:04:24;;;;;;;13.63;9.13;;;;;;;2.57;84.83;98857.28;4950458;28;20209;-83
2023/03/08 11:06:51;;;;;;;15.97;8.80;;;;;;;2.59;84.88;98860.69;4951970;28;20440;-83
2023/03/08 11:09:24;;;;;;;10.53;7.17;;;;;;;2.62;84.77;98855.25;4952011;28;20216;-83
2023/03/08 11:11:51;;;;;;;10.07;6.93;;;;;;;2.60;84.13;98851.84;4947142;28;20296;-83
2023/03/08 11:14:18;;;;;;;10.97;7.73;;;;;;;2.60;83.96;98854.50;4950029;28;20350;-83
2023/03/08 11:17:02;;;;;;;12.87;8.00;;;;;;;2.64;83.03;98856.00;4948774;28;20697;-83
2023/03/08 11:19:39;;;;;;;7.17;4.10;;;;;;;2.67;83.27;98865.50;4950722;28;20213;-84
2023/03/08 11:22:18;;;;;;;6.23;4.33;;;;;;;2.67;82.64;98863.72;4952053;28;20350;-83
2023/03/08 11:25:14;;;;;;;7.00;4.83;;;;;;;2.69;82.74;98859.19;4958379;28;20200;-83
2023/03/08 11:28:06;;;;;;;8.17;5.23;;;;;;;2.75;81.87;98850.94;4946541;28;20205;-85
2023/03/08 11:30:44;;;;;;;7.53;4.80;;;;;;;2.80;81.90;98853.31;4956267;28;20210;-85
2023/03/08 11:33:42;;;;;;;10.87;5.17;;;;;;;2.83;81.48;98852.28;4958447;28;20212;-84
2023/03/08 11:36:12;;;;;;;8.27;5.10;;;;;;;2.86;81.77;98858.19;4950135;29;20232;-84